Meteo Giornale » Osservazioni meteo Stati Uniti (USA) » Ontario

ore: 12:53 - Osservazioni Meteo Ontario
Lat. 34° 3' N Lon. 117° 34' W Alt. 287 metri s.l.m.

poco_nuvoloso

31 °C

Poco Nuvoloso

Temp. 24 Ore

21 °C

34 °C

Sud-Ovest

14.8 Km/h

Dew point 13 °C

Umidità 33 %

Visibilità  10 Km

Il sole sorge alle ore 06:23

Il sole tramonta alle ore 19:17

Data e Ora Cielo e Fenomeni T °C DP °C Um. % Pres. hPa Vis. km Vento km/h
Oggi h: 12:53 poco_nuvoloso Poco Nuvoloso 31 13 33 1013 10 SO 14.8
Oggi h: 11:53 poco_nuvoloso Poco Nuvoloso 29 16 45 1014 10 O/SO 13
Oggi h: 10:53 sereno Sereno 27 18 57 1014 10 S/SO 7.4
Oggi h: 09:53 sereno Sereno 25 18 65 1014 14 NO 9.3
Oggi h: 08:53 sereno Sereno 23 18 73 1014 13 N 0
Oggi h: 07:53 poco_nuvoloso Poco Nuvoloso 22 18 78 1014 13 N 0
Oggi h: 06:53 poco_nuvoloso Poco Nuvoloso 21 18 82 1013 14 O 7.4
Oggi h: 05:53 poco_nuvoloso Poco Nuvoloso 21 18 82 1012 10 O/SO 7.4
Oggi h: 04:53 poco_nuvoloso Poco Nuvoloso 21 18 82 1012 10 N 0
Oggi h: 03:53 poco_nuvoloso Poco Nuvoloso 21 18 82 1012 10 N 5.5
Oggi h: 02:53 poco_nuvoloso Poco Nuvoloso 22 18 78 1012 10 SO 7.4
Oggi h: 01:53 poco_nuvoloso Poco Nuvoloso 22 18 78 1012 10 O 7.4
Oggi h: 00:53 poco_nuvoloso Poco Nuvoloso 23 17 68 1012 10 O/SO 9.3
Ieri h: 23:53 poco_nuvoloso Poco Nuvoloso 23 17 68 1012 10 SO 7.4
Ieri h: 22:53 poco_nuvoloso Poco Nuvoloso 23 17 68 1012 10 O 14.8
Ieri h: 21:53 poco_nuvoloso Poco Nuvoloso 24 17 64 1012 10 O/SO 14.8
Ieri h: 20:53 poco_nuvoloso Poco Nuvoloso 25 18 65 1011 10 O/SO 14.8
Ieri h: 19:53 poco_nuvoloso Poco Nuvoloso 27 17 54 1010 10 O/SO 16.7
Ieri h: 18:53 poco_nuvoloso Poco Nuvoloso 29 16 45 1010 10 O/SO 18.5
Ieri h: 17:53 poco_nuvoloso Poco Nuvoloso 32 16 38 1010 10 O/SO 18.5
Ieri h: 16:53 poco_nuvoloso Poco Nuvoloso 32 17 40 1010 10 O/SO 20.3
Ieri h: 15:53 poco_nuvoloso Poco Nuvoloso 33 17 38 1010 10 O/SO 22.2
Ieri h: 14:53 poco_nuvoloso Poco Nuvoloso 34 18 38 1011 10 O/SO 20.3
Ieri h: 13:53 poco_nuvoloso Poco Nuvoloso 34 16 34 1011 10 O/SO 20.3